首页
METAR-TAF:

METAR-TAF

机场 :

马普托国际机场

马普托, 莫桑比克

纬度: 25-55S, 经度: 032-34E, 海拔: 39米

当前天气观测

该预报发布于1小时和2分钟前的12:00 UTC
风速7节,风向北转东北,在之间变化
温度 28°C
湿度 51%
气压 1022 hPa
能见度10公里或以上
少量云层高于2000英尺

METAR: FQMA 201200Z 03007KT 010V100 9999 FEW020 28/17 Q1022 NOSIG

时间: 15:02 (13:02 UTC)

预报

该预报发布于3小时和2分钟前的10:00 UTC
预报有效从20日的 12点(UTC)到 21日的 18点(UTC)
风速12节,风向北转东北
能见度10公里或以上
少量云层高于2000英尺
成为
从 20日的 18点(UTC)到 20日的 20点(UTC)
风速9节,风向东转东北
能见度10公里或以上
1500米以下无云,无积雨云
成为
从 21日的 00点(UTC)到 21日的 02点(UTC)
风速8节,风向西转西北
成为
从 21日的 06点(UTC)到 21日的 08点(UTC)
风速6节,风向
成为
从 21日的 12点(UTC)到 21日的 14点(UTC)
风速10节,风向

TAF: FQMA 201000Z 2012/2118 03012KT 9999 FEW020 TX28/2013Z TN19/2102Z BECMG 2018/2020 07009KT CAVOK BECMG 2100/2102 30008KT BECMG 2106/2108 36006KT BECMG 2112/2114 08010KT

超过4000个机场的气象观测和天气预报(METAR&TAF报告)。

可查询的气象台以黄色和红色小点在地图上表示。

将鼠标移到小点上方,可查看气象台名称。

然后点击查看天气观测和预报。

如需切换地图:点击带黑十字的绿色按钮放大地图;点击带横线的绿色按钮缩小地图;或者点击绿色箭头查看邻近地区的地图。


METAR-TAF: